createdAt,value
2023-03-02T00:01:08.340Z,4.30
2023-03-02T00:03:38.901Z,4.50
2023-03-02T00:06:10.029Z,4.43
2023-03-02T00:08:39.208Z,5.13
2023-03-02T00:11:06.890Z,4.57
2023-03-02T00:13:36.562Z,4.77
2023-03-02T00:16:04.398Z,4.27
2023-03-02T00:18:32.299Z,4.03
2023-03-02T00:21:00.113Z,3.67
2023-03-02T00:23:29.068Z,4.20
2023-03-02T00:25:56.695Z,4.27
2023-03-02T00:28:24.394Z,3.83
2023-03-02T00:30:52.237Z,4.40
2023-03-02T00:33:19.866Z,4.17
2023-03-02T00:35:47.999Z,3.80
2023-03-02T00:38:15.979Z,4.40
2023-03-02T00:40:50.030Z,4.10
2023-03-02T00:43:18.674Z,4.20
2023-03-02T00:45:46.434Z,3.93
2023-03-02T00:48:14.039Z,4.13
2023-03-02T00:50:41.929Z,5.10
2023-03-02T00:53:10.033Z,4.50
2023-03-02T00:55:38.427Z,3.90
2023-03-02T00:58:08.041Z,4.13
2023-03-02T01:00:35.789Z,4.30
2023-03-02T01:03:06.684Z,3.90
2023-03-02T01:05:37.449Z,3.80
2023-03-02T01:08:05.747Z,3.67
2023-03-02T01:10:33.518Z,3.90
2023-03-02T01:13:01.180Z,4.20
2023-03-02T01:15:30.740Z,3.90
2023-03-02T01:18:00.111Z,4.40
2023-03-02T01:20:28.199Z,3.83
2023-03-02T01:22:56.512Z,3.60
2023-03-02T01:25:24.290Z,3.80
2023-03-02T01:27:51.939Z,3.60
2023-03-02T01:30:19.832Z,4.67
2023-03-02T01:32:48.834Z,4.73
2023-03-02T01:35:16.615Z,4.70
2023-03-02T01:37:44.231Z,4.27
2023-03-02T01:40:14.690Z,4.70
2023-03-02T01:42:52.913Z,4.60
2023-03-02T01:45:51.731Z,4.27
2023-03-02T01:48:30.731Z,4.03
2023-03-02T01:50:59.706Z,3.80
2023-03-02T01:53:30.536Z,3.50
2023-03-02T01:56:01.740Z,3.63
2023-03-02T01:58:35.458Z,3.80
2023-03-02T02:01:03.973Z,3.60
2023-03-02T02:03:33.335Z,3.63
2023-03-02T02:06:10.808Z,3.70
2023-03-02T02:08:40.788Z,3.80
2023-03-02T02:11:08.552Z,3.67
2023-03-02T02:13:36.264Z,3.90
2023-03-02T02:16:04.740Z,4.00
2023-03-02T02:18:34.824Z,3.90
2023-03-02T02:21:03.127Z,3.57
2023-03-02T02:23:38.039Z,4.17
2023-03-02T02:26:11.256Z,4.27
2023-03-02T02:28:43.387Z,3.97
2023-03-02T02:31:17.109Z,4.17
2023-03-02T02:33:50.463Z,3.90
2023-03-02T02:36:22.015Z,4.00
2023-03-02T02:38:54.279Z,4.00
2023-03-02T02:41:28.383Z,3.53
2023-03-02T02:43:57.233Z,3.80
2023-03-02T02:46:26.553Z,4.00
2023-03-02T02:48:54.821Z,4.40
2023-03-02T02:51:26.452Z,3.90
2023-03-02T02:53:58.726Z,3.80
2023-03-02T02:56:34.023Z,3.10
2023-03-02T02:59:07.354Z,3.93
2023-03-02T03:01:35.513Z,4.30
2023-03-02T03:04:06.334Z,4.57
2023-03-02T03:06:42.158Z,3.87
2023-03-02T03:09:11.742Z,3.70
2023-03-02T03:11:47.883Z,4.60
2023-03-02T03:14:18.203Z,4.17
2023-03-02T03:16:50.962Z,3.57
2023-03-02T03:19:25.062Z,3.07
2023-03-02T03:21:55.874Z,3.63
2023-03-02T03:24:26.666Z,3.47
2023-03-02T03:26:56.944Z,3.63
2023-03-02T03:29:27.016Z,2.90
2023-03-02T03:32:00.558Z,3.63
2023-03-02T03:34:30.235Z,4.03
2023-03-02T03:37:01.752Z,3.67
2023-03-02T03:39:32.304Z,2.90
2023-03-02T03:42:01.516Z,3.20
2023-03-02T03:44:29.971Z,3.50
2023-03-02T03:46:57.819Z,3.57
2023-03-02T03:49:25.670Z,3.27
2023-03-02T03:51:53.625Z,3.47
2023-03-02T03:54:21.422Z,2.90
2023-03-02T03:56:51.017Z,3.03
2023-03-02T03:59:22.550Z,2.90
2023-03-02T04:02:03.027Z,3.20
2023-03-02T04:04:37.036Z,3.40
2023-03-02T04:07:09.737Z,3.67
2023-03-02T04:09:39.189Z,3.50
2023-03-02T04:12:11.515Z,3.13
2023-03-02T04:14:48.749Z,3.23
2023-03-02T04:17:16.815Z,3.47
2023-03-02T04:19:47.117Z,3.23
2023-03-02T04:22:16.285Z,3.20
2023-03-02T04:24:44.008Z,3.10
2023-03-02T04:27:12.355Z,2.90
2023-03-02T04:29:40.341Z,3.13
2023-03-02T04:32:10.730Z,3.17
2023-03-02T04:34:39.894Z,3.23
2023-03-02T04:37:07.689Z,2.73
2023-03-02T04:39:35.326Z,2.90
2023-03-02T04:42:03.118Z,2.77
2023-03-02T04:44:30.822Z,2.80
2023-03-02T04:46:58.681Z,2.90
2023-03-02T04:49:27.755Z,2.83
2023-03-02T04:51:55.440Z,3.43
2023-03-02T04:54:25.590Z,2.50
2023-03-02T04:56:53.723Z,2.80
2023-03-02T04:59:24.020Z,2.93
2023-03-02T05:01:51.660Z,3.10
2023-03-02T05:04:20.015Z,3.27
2023-03-02T05:06:49.070Z,3.50
2023-03-02T05:09:16.721Z,3.13
2023-03-02T05:11:44.382Z,3.37
2023-03-02T05:14:14.092Z,2.70
2023-03-02T05:16:43.017Z,3.07
2023-03-02T05:19:13.468Z,3.23
2023-03-02T05:21:41.497Z,3.07
2023-03-02T05:24:10.983Z,3.13
2023-03-02T05:26:39.027Z,2.83
2023-03-02T05:29:07.027Z,3.03
2023-03-02T05:31:37.617Z,3.60
2023-03-02T05:34:07.390Z,3.20
2023-03-02T05:36:36.443Z,3.70
2023-03-02T05:39:05.122Z,3.43
2023-03-02T05:41:34.281Z,4.10
2023-03-02T05:44:01.996Z,4.17
2023-03-02T05:46:29.829Z,3.73
2023-03-02T05:48:57.635Z,4.23
2023-03-02T05:51:25.358Z,3.70
2023-03-02T05:53:52.997Z,4.03
2023-03-02T05:56:22.353Z,4.27
2023-03-02T05:58:51.344Z,4.87
2023-03-02T06:01:19.014Z,4.20
2023-03-02T06:03:47.894Z,4.33
2023-03-02T06:06:15.551Z,4.33
2023-03-02T06:08:43.802Z,4.70
2023-03-02T06:11:12.497Z,4.33
2023-03-02T06:13:40.594Z,5.40
2023-03-02T06:16:10.432Z,5.67
2023-03-02T06:18:41.475Z,4.67
2023-03-02T06:21:10.713Z,4.60
2023-03-02T06:23:38.746Z,5.27
2023-03-02T06:26:09.915Z,4.93
2023-03-02T06:28:51.476Z,4.60
2023-03-02T06:31:23.300Z,4.70
2023-03-02T06:33:51.081Z,3.97
2023-03-02T06:36:18.802Z,4.27
2023-03-02T06:38:46.570Z,4.40
2023-03-02T06:41:14.280Z,4.97
2023-03-02T06:43:42.094Z,4.70
2023-03-02T06:46:10.056Z,5.50
2023-03-02T06:48:39.275Z,5.63
2023-03-02T06:51:07.692Z,6.37
2023-03-02T06:53:35.342Z,6.17
2023-03-02T06:56:02.960Z,6.00
2023-03-02T06:58:30.731Z,7.53
2023-03-02T07:00:58.509Z,6.53
2023-03-02T07:03:26.348Z,6.30
2023-03-02T07:05:56.563Z,6.60
2023-03-02T07:08:24.857Z,6.70
2023-03-02T07:10:52.683Z,6.63
2023-03-02T07:13:21.486Z,6.80
2023-03-02T07:15:49.730Z,6.63
2023-03-02T07:18:17.639Z,6.90
2023-03-02T07:20:45.385Z,7.47
2023-03-02T07:23:14.663Z,7.07
2023-03-02T07:25:43.447Z,8.20
2023-03-02T07:28:11.804Z,8.00
2023-03-02T07:30:39.518Z,7.93
2023-03-02T07:33:07.234Z,7.53
2023-03-02T07:35:36.066Z,7.50
2023-03-02T07:38:03.757Z,7.27
2023-03-02T07:40:33.910Z,7.07
2023-03-02T07:43:01.615Z,7.23
2023-03-02T07:45:29.215Z,6.30
2023-03-02T07:47:57.718Z,7.00
2023-03-02T07:50:25.569Z,7.23
2023-03-02T07:52:53.292Z,6.73
2023-03-02T07:55:21.023Z,8.87
2023-03-02T07:57:50.076Z,8.47
2023-03-02T08:00:18.796Z,7.63
2023-03-02T08:02:46.522Z,7.70
2023-03-02T08:05:14.456Z,7.00
2023-03-02T08:07:42.698Z,6.70
2023-03-02T08:10:12.188Z,7.90
2023-03-02T08:12:39.825Z,7.43
2023-03-02T08:15:10.380Z,7.87
2023-03-02T08:17:38.025Z,8.57
2023-03-02T08:20:06.553Z,8.73
2023-03-02T08:22:34.202Z,8.97
2023-03-02T08:25:01.832Z,8.57
2023-03-02T08:27:29.538Z,7.70
2023-03-02T08:29:57.715Z,7.57
2023-03-02T08:32:26.703Z,7.03
2023-03-02T08:34:54.553Z,7.07
2023-03-02T08:37:22.255Z,6.43
2023-03-02T08:39:50.503Z,6.17
2023-03-02T08:42:22.792Z,6.90
2023-03-02T08:44:50.435Z,6.40
2023-03-02T08:47:18.074Z,6.07
2023-03-02T08:49:48.283Z,5.87
2023-03-02T08:52:16.302Z,6.37
2023-03-02T08:54:43.930Z,6.50
2023-03-02T08:57:12.470Z,6.60
2023-03-02T08:59:40.347Z,5.83
2023-03-02T09:02:08.233Z,6.50
2023-03-02T09:04:36.069Z,6.60
2023-03-02T09:07:05.116Z,7.10
2023-03-02T09:09:32.720Z,6.70
2023-03-02T09:12:00.302Z,6.53
2023-03-02T09:14:28.336Z,6.50
2023-03-02T09:16:56.016Z,6.73
2023-03-02T09:19:23.782Z,6.70
2023-03-02T09:21:51.448Z,6.33
2023-03-02T09:24:20.448Z,6.43
2023-03-02T09:26:48.091Z,7.00
2023-03-02T09:29:15.741Z,6.03
2023-03-02T09:31:43.699Z,6.43
2023-03-02T09:34:11.405Z,5.60
2023-03-02T09:36:39.071Z,6.20
2023-03-02T09:39:12.281Z,7.30
2023-03-02T09:42:09.430Z,7.67
2023-03-02T09:44:50.043Z,7.83
2023-03-02T09:47:34.815Z,7.37
2023-03-02T09:50:12.512Z,7.80
2023-03-02T09:52:47.236Z,8.17
2023-03-02T09:55:17.359Z,7.97
2023-03-02T09:57:46.922Z,8.47
2023-03-02T10:00:19.909Z,8.43
2023-03-02T10:02:50.111Z,7.17
2023-03-02T10:05:21.291Z,7.60
2023-03-02T10:07:49.376Z,7.60
2023-03-02T10:10:26.621Z,7.97
2023-03-02T10:13:17.847Z,7.93
2023-03-02T10:15:56.854Z,8.53
2023-03-02T10:18:29.323Z,8.80
2023-03-02T10:21:01.652Z,8.77
2023-03-02T10:23:42.283Z,9.40
2023-03-02T10:26:23.508Z,10.00
2023-03-02T10:28:58.997Z,11.23
2023-03-02T10:31:29.727Z,11.50
2023-03-02T10:33:58.005Z,12.30
2023-03-02T10:36:27.773Z,11.60
2023-03-02T10:38:57.559Z,11.30
2023-03-02T10:41:30.212Z,11.67
2023-03-02T10:44:04.522Z,11.33
2023-03-02T10:46:42.093Z,10.00
2023-03-02T10:49:26.507Z,10.73
2023-03-02T10:51:59.778Z,10.73
2023-03-02T10:54:28.944Z,10.37
2023-03-02T10:56:59.689Z,9.87
2023-03-02T10:59:43.188Z,10.27
2023-03-02T11:02:18.184Z,8.17
2023-03-02T11:04:46.309Z,8.83
2023-03-02T11:07:17.784Z,9.80
2023-03-02T11:09:45.584Z,9.47
2023-03-02T11:12:16.794Z,9.70
2023-03-02T11:14:45.796Z,9.93
2023-03-02T11:17:30.907Z,9.83
2023-03-02T11:19:58.765Z,10.03
2023-03-02T11:22:37.846Z,10.10
2023-03-02T11:25:12.739Z,9.80
2023-03-02T11:27:42.397Z,10.43
2023-03-02T11:30:16.974Z,10.10
2023-03-02T11:32:52.434Z,11.70
2023-03-02T11:35:29.777Z,11.33
2023-03-02T11:38:03.613Z,11.97
2023-03-02T11:40:35.089Z,11.93
2023-03-02T11:43:05.566Z,12.07
2023-03-02T11:45:38.041Z,12.07
2023-03-02T11:48:09.890Z,13.13
2023-03-02T11:50:44.596Z,14.23
2023-03-02T11:53:17.131Z,14.70
2023-03-02T11:55:48.732Z,15.83
2023-03-02T11:58:19.386Z,15.70
2023-03-02T12:00:49.860Z,16.93
2023-03-02T12:03:22.874Z,16.40
2023-03-02T12:06:03.022Z,15.53
2023-03-02T12:08:38.791Z,15.60
2023-03-02T12:11:08.745Z,15.57
2023-03-02T12:13:38.704Z,14.57
2023-03-02T12:16:20.541Z,14.50
2023-03-02T12:18:49.943Z,14.37
2023-03-02T12:21:19.728Z,13.87
2023-03-02T12:24:04.035Z,13.23
2023-03-02T12:26:36.015Z,12.83
2023-03-02T12:29:08.537Z,14.83
2023-03-02T12:31:46.501Z,14.63
2023-03-02T12:34:34.954Z,13.47
2023-03-02T12:37:09.149Z,14.47
2023-03-02T12:40:18.162Z,14.77
2023-03-02T12:42:59.758Z,14.83
2023-03-02T12:45:42.320Z,14.47
2023-03-02T12:48:29.303Z,13.77
2023-03-02T12:51:01.806Z,15.00
2023-03-02T12:53:30.209Z,15.40
2023-03-02T12:55:58.513Z,17.37
2023-03-02T12:58:28.617Z,17.37
2023-03-02T13:00:59.135Z,17.60
2023-03-02T13:03:30.050Z,17.80
2023-03-02T13:06:05.317Z,16.67
2023-03-02T13:08:33.341Z,16.30
2023-03-02T13:11:03.036Z,17.13
2023-03-02T13:13:37.855Z,16.63
2023-03-02T13:16:08.240Z,17.77
2023-03-02T13:18:39.649Z,17.00
2023-03-02T13:21:07.821Z,16.07
2023-03-02T13:23:35.530Z,14.50
2023-03-02T13:26:05.769Z,16.77
2023-03-02T13:28:36.687Z,16.97
2023-03-02T13:31:07.059Z,18.53
2023-03-02T13:33:44.214Z,18.90
2023-03-02T13:36:19.436Z,18.27
2023-03-02T13:38:50.709Z,19.47
2023-03-02T13:41:23.826Z,18.20
2023-03-02T13:43:51.734Z,17.33
2023-03-02T13:46:28.699Z,17.63
2023-03-02T13:49:09.587Z,17.10
2023-03-02T13:51:41.396Z,17.23
2023-03-02T13:54:20.550Z,17.63
2023-03-02T13:56:48.589Z,16.03
2023-03-02T13:59:23.460Z,16.80
2023-03-02T14:01:54.821Z,17.17
2023-03-02T14:04:31.134Z,16.57
2023-03-02T14:06:59.227Z,15.90
2023-03-02T14:09:31.979Z,15.87
2023-03-02T14:12:02.387Z,16.40
2023-03-02T14:14:36.144Z,16.80
2023-03-02T14:17:14.360Z,15.93
2023-03-02T14:19:45.218Z,16.17
2023-03-02T14:22:20.066Z,14.83
2023-03-02T14:24:56.336Z,15.83
2023-03-02T14:27:34.052Z,16.60
2023-03-02T14:30:01.998Z,14.17
2023-03-02T14:32:31.448Z,15.17
2023-03-02T14:35:00.876Z,15.47
2023-03-02T14:37:30.293Z,17.00
2023-03-02T14:39:58.590Z,16.80
2023-03-02T14:42:26.978Z,15.87
2023-03-02T14:45:00.010Z,15.47
2023-03-02T14:47:32.622Z,16.60
2023-03-02T14:50:05.377Z,15.10
2023-03-02T14:52:38.811Z,15.63
2023-03-02T14:55:13.767Z,15.17
2023-03-02T14:57:43.895Z,14.87
2023-03-02T15:00:15.350Z,15.20
2023-03-02T15:02:43.378Z,14.00
2023-03-02T15:05:12.463Z,14.20
2023-03-02T15:07:40.902Z,13.27
2023-03-02T15:10:09.891Z,13.40
2023-03-02T15:12:37.872Z,14.40
2023-03-02T15:15:06.316Z,15.13
2023-03-02T15:17:34.012Z,14.90
2023-03-02T15:20:02.110Z,14.60
2023-03-02T15:22:31.289Z,14.37
2023-03-02T15:24:59.016Z,15.13
2023-03-02T15:27:26.846Z,14.00
2023-03-02T15:29:56.699Z,13.13
2023-03-02T15:32:24.862Z,13.23
2023-03-02T15:34:52.496Z,11.90
2023-03-02T15:37:20.131Z,11.90
2023-03-02T15:39:54.420Z,12.80
2023-03-02T15:42:22.142Z,13.57
2023-03-02T15:44:50.141Z,12.00
2023-03-02T15:47:18.105Z,11.97
2023-03-02T15:49:45.739Z,11.63
2023-03-02T15:52:13.744Z,11.80
2023-03-02T15:54:42.066Z,11.43
2023-03-02T15:57:11.666Z,11.07
2023-03-02T15:59:39.393Z,10.93
2023-03-02T16:02:07.016Z,10.40
2023-03-02T16:04:34.958Z,9.67
2023-03-02T16:07:02.599Z,9.93
2023-03-02T16:09:30.990Z,9.47
2023-03-02T16:11:58.751Z,9.17
2023-03-02T16:14:27.839Z,10.20
2023-03-02T16:16:55.538Z,11.07
2023-03-02T16:19:23.306Z,10.63
2023-03-02T16:21:50.929Z,10.57
2023-03-02T16:24:18.625Z,10.27
2023-03-02T16:26:46.308Z,9.07
2023-03-02T16:29:16.038Z,10.03
2023-03-02T16:31:46.995Z,9.80
2023-03-02T16:34:14.746Z,10.13
2023-03-02T16:36:42.851Z,10.47
2023-03-02T16:39:11.750Z,9.90
2023-03-02T16:41:42.927Z,8.93
2023-03-02T16:44:13.434Z,9.63
2023-03-02T16:46:43.342Z,9.17
2023-03-02T16:49:13.286Z,9.13
2023-03-02T16:51:43.041Z,9.00
2023-03-02T16:54:12.180Z,9.60
2023-03-02T16:56:41.769Z,10.43
2023-03-02T16:59:09.467Z,9.47
2023-03-02T17:01:37.101Z,9.20
2023-03-02T17:04:06.023Z,9.13
2023-03-02T17:06:35.778Z,8.90
2023-03-02T17:09:05.252Z,9.73
2023-03-02T17:11:33.175Z,9.57
2023-03-02T17:14:00.840Z,8.57
2023-03-02T17:16:28.444Z,9.07
2023-03-02T17:18:56.086Z,8.10
2023-03-02T17:21:25.013Z,7.63
2023-03-02T17:23:54.359Z,8.47
2023-03-02T17:26:21.981Z,8.27
2023-03-02T17:28:49.625Z,7.67
2023-03-02T17:31:17.497Z,8.03
2023-03-02T17:33:45.150Z,7.97
2023-03-02T17:36:15.355Z,7.73
2023-03-02T17:38:43.236Z,7.90
2023-03-02T17:41:12.690Z,8.43
2023-03-02T17:43:42.876Z,8.97
2023-03-02T17:46:20.510Z,7.97
2023-03-02T17:48:50.481Z,8.03
2023-03-02T17:51:19.192Z,7.57
2023-03-02T17:53:48.923Z,8.50
2023-03-02T17:56:22.050Z,7.83
2023-03-02T17:58:53.983Z,8.03
2023-03-02T18:01:21.698Z,7.83
2023-03-02T18:03:49.470Z,8.00
2023-03-02T18:06:20.421Z,7.50
2023-03-02T18:08:48.743Z,6.90
2023-03-02T18:11:20.282Z,6.40
2023-03-02T18:13:48.940Z,7.07
2023-03-02T18:16:16.792Z,6.47
2023-03-02T18:18:44.453Z,6.47
2023-03-02T18:21:12.098Z,6.47
2023-03-02T18:23:41.945Z,6.17
2023-03-02T18:26:10.004Z,6.17
2023-03-02T18:28:39.493Z,6.73
2023-03-02T18:31:07.849Z,6.40
2023-03-02T18:33:42.227Z,5.87
2023-03-02T18:36:10.709Z,5.40
2023-03-02T18:38:38.851Z,6.20
2023-03-02T18:41:08.616Z,6.17
2023-03-02T18:43:43.225Z,6.23
2023-03-02T18:46:22.208Z,5.47
2023-03-02T18:48:50.960Z,5.40
2023-03-02T18:51:19.061Z,6.13
2023-03-02T18:53:47.356Z,6.90
2023-03-02T18:56:15.508Z,7.57
2023-03-02T18:58:44.936Z,7.13
2023-03-02T19:01:13.149Z,6.73
2023-03-02T19:03:41.852Z,6.73
2023-03-02T19:06:10.066Z,6.30
2023-03-02T19:08:38.104Z,7.00
2023-03-02T19:11:08.644Z,6.83
2023-03-02T19:13:36.450Z,6.97
2023-03-02T19:16:06.289Z,7.03
2023-03-02T19:18:34.394Z,7.50
2023-03-02T19:21:04.300Z,6.53
2023-03-02T19:23:31.948Z,6.73
2023-03-02T19:26:00.493Z,6.33
2023-03-02T19:28:28.515Z,5.87
2023-03-02T19:30:56.129Z,5.33
2023-03-02T19:33:27.061Z,5.63
2023-03-02T19:35:54.927Z,5.47
2023-03-02T19:38:23.942Z,5.60
2023-03-02T19:40:51.683Z,5.67
2023-03-02T19:43:20.350Z,5.80
2023-03-02T19:45:48.198Z,4.90
2023-03-02T19:48:15.891Z,5.33
2023-03-02T19:50:45.488Z,5.23
2023-03-02T19:53:13.732Z,5.47
2023-03-02T19:55:42.673Z,6.03
2023-03-02T19:58:16.675Z,5.07
2023-03-02T20:00:45.352Z,5.97
2023-03-02T20:03:13.154Z,5.50
2023-03-02T20:05:41.170Z,5.93
2023-03-02T20:08:10.316Z,5.10
2023-03-02T20:10:40.702Z,5.33
2023-03-02T20:13:08.622Z,5.00
2023-03-02T20:15:39.799Z,6.00
2023-03-02T20:18:08.706Z,6.00
2023-03-02T20:20:36.710Z,5.20
2023-03-02T20:23:04.676Z,5.23
2023-03-02T20:25:34.785Z,5.10
2023-03-02T20:28:05.481Z,5.27
2023-03-02T20:30:37.339Z,4.67
2023-03-02T20:33:07.852Z,5.20
2023-03-02T20:35:39.894Z,5.03
2023-03-02T20:38:10.419Z,5.60
2023-03-02T20:40:39.447Z,5.13
2023-03-02T20:43:07.263Z,4.97
2023-03-02T20:45:35.761Z,5.93
2023-03-02T20:48:04.301Z,5.43
2023-03-02T20:50:35.004Z,5.20
2023-03-02T20:53:03.058Z,4.70
2023-03-02T20:55:31.203Z,4.57
2023-03-02T20:58:01.079Z,4.60
2023-03-02T21:00:30.883Z,4.33
2023-03-02T21:02:59.115Z,4.30
2023-03-02T21:05:27.998Z,4.23
2023-03-02T21:07:56.878Z,4.73
2023-03-02T21:10:28.134Z,4.07
2023-03-02T21:12:56.132Z,3.90
2023-03-02T21:15:27.144Z,3.43
2023-03-02T21:17:56.032Z,3.63
2023-03-02T21:20:25.909Z,4.40
2023-03-02T21:22:53.578Z,3.73
2023-03-02T21:25:21.475Z,3.63
2023-03-02T21:27:49.223Z,3.80
2023-03-02T21:30:19.747Z,3.43
2023-03-02T21:32:49.550Z,3.57
2023-03-02T21:35:19.904Z,3.83
2023-03-02T21:37:49.321Z,3.70
2023-03-02T21:40:19.915Z,3.50
2023-03-02T21:42:47.790Z,4.77
2023-03-02T21:45:15.489Z,4.77
2023-03-02T21:47:46.346Z,4.53
2023-03-02T21:50:17.937Z,4.70
2023-03-02T21:52:45.819Z,5.00
2023-03-02T21:55:18.932Z,4.77
2023-03-02T21:57:49.725Z,4.63
2023-03-02T22:00:22.834Z,5.00
2023-03-02T22:02:54.395Z,4.57
2023-03-02T22:05:28.053Z,3.90
2023-03-02T22:07:56.080Z,4.90
2023-03-02T22:10:27.777Z,4.07
2023-03-02T22:12:58.459Z,4.50
2023-03-02T22:15:27.936Z,4.73
2023-03-02T22:17:58.028Z,4.70
2023-03-02T22:20:27.413Z,4.23
2023-03-02T22:22:55.623Z,3.87
2023-03-02T22:25:24.617Z,3.43
2023-03-02T22:27:52.598Z,3.57
2023-03-02T22:30:22.709Z,3.70
2023-03-02T22:32:51.020Z,3.70
2023-03-02T22:35:25.462Z,3.57
2023-03-02T22:38:03.162Z,3.77
2023-03-02T22:40:33.802Z,3.47
2023-03-02T22:43:14.890Z,3.67
2023-03-02T22:45:42.924Z,3.47
2023-03-02T22:48:16.594Z,4.03
2023-03-02T22:50:45.654Z,3.80
2023-03-02T22:53:39.146Z,3.53
2023-03-02T22:56:26.888Z,3.70
2023-03-02T22:58:55.146Z,3.57
2023-03-02T23:01:24.854Z,3.07
2023-03-02T23:03:54.686Z,4.10
2023-03-02T23:06:28.604Z,3.17
2023-03-02T23:08:59.423Z,3.20
2023-03-02T23:11:27.804Z,2.77
2023-03-02T23:13:55.870Z,2.83
2023-03-02T23:16:25.197Z,3.00
2023-03-02T23:18:54.945Z,3.13
2023-03-02T23:21:28.258Z,3.40
2023-03-02T23:23:57.557Z,3.33
2023-03-02T23:26:25.192Z,3.07
2023-03-02T23:28:52.851Z,3.63
2023-03-02T23:31:21.198Z,3.00
2023-03-02T23:33:49.433Z,3.57
2023-03-02T23:36:17.136Z,3.63
2023-03-02T23:38:44.841Z,3.80
2023-03-02T23:41:13.759Z,3.57
2023-03-02T23:43:41.666Z,3.00
2023-03-02T23:46:13.883Z,3.87
2023-03-02T23:48:42.000Z,3.27
2023-03-02T23:51:09.951Z,3.03
2023-03-02T23:53:37.646Z,3.07
2023-03-02T23:56:05.851Z,2.47
2023-03-02T23:58:34.861Z,2.77
